Time;durP1;ratioP1;P1;durP2;ratioP2;P2;SDS_P1;SDS_P2;PMS_P1;PMS_P2;Temp;Humidity;BMP_temperature;BMP_pressure;BME280_temperature;BME280_humidity;BME280_pressure;Samples;Min_cycle;Max_cycle;Signal;HPM_P1;HPM_P2
2021/04/29 00:02:04;;;;;;;3.63;2.77;;;;;;;4.93;70.60;101605.78;6310494;28;20495;-73
2021/04/29 00:05:12;;;;;;;8.00;3.07;;;;;;;5.38;68.15;101607.31;6310222;28;20298;-73
2021/04/29 00:08:16;;;;;;;9.27;2.50;;;;;;;5.51;67.06;101605.81;6310301;28;20528;-73
2021/04/29 00:11:19;;;;;;;5.87;2.70;;;;;;;5.60;66.69;101607.53;6311139;28;20209;-72
2021/04/29 00:14:23;;;;;;;9.57;3.20;;;;;;;5.55;67.32;101603.63;6316152;28;20218;-73
2021/04/29 00:17:27;;;;;;;10.03;2.90;;;;;;;5.58;66.79;101595.16;6314798;28;20190;-73
2021/04/29 00:20:31;;;;;;;14.40;3.27;;;;;;;5.43;67.06;101592.28;6316041;28;20186;-73
2021/04/29 00:23:34;;;;;;;9.37;3.10;;;;;;;5.56;67.25;101594.50;6315666;28;20253;-72
2021/04/29 00:26:38;;;;;;;12.33;3.60;;;;;;;5.45;67.03;101578.56;6314555;28;20191;-73
2021/04/29 00:29:42;;;;;;;8.93;3.13;;;;;;;5.37;67.87;101586.66;6313962;28;20256;-73
2021/04/29 00:32:45;;;;;;;8.93;2.87;;;;;;;5.42;67.61;101601.38;6314436;28;20201;-73
2021/04/29 00:35:48;;;;;;;11.23;3.30;;;;;;;5.49;67.34;101598.88;6314501;28;20477;-73
2021/04/29 00:38:52;;;;;;;4.80;3.07;;;;;;;5.54;67.17;101586.56;6314321;28;20571;-73
2021/04/29 00:41:55;;;;;;;9.50;2.90;;;;;;;5.52;67.85;101601.25;6314182;28;20466;-72
2021/04/29 00:45:00;;;;;;;7.90;3.17;;;;;;;5.32;68.89;101600.69;6314104;28;20434;-73
2021/04/29 00:48:05;;;;;;;5.63;3.37;;;;;;;5.45;68.49;101590.25;6314017;28;20217;-73
2021/04/29 00:51:09;;;;;;;11.93;2.77;;;;;;;5.37;68.44;101592.06;6315128;28;20226;-73
2021/04/29 00:54:12;;;;;;;9.67;3.20;;;;;;;5.27;69.74;101596.78;6313980;28;20374;-73
2021/04/29 00:57:15;;;;;;;3.17;3.07;;;;;;;5.09;70.86;101605.00;6315229;28;20235;-73
2021/04/29 01:00:21;;;;;;;3.03;2.60;;;;;;;4.83;71.83;101610.47;6314100;28;20231;-73
2021/04/29 01:03:32;;;;;;;2.70;2.60;;;;;;;4.78;72.74;101601.97;6314485;28;20239;-73
2021/04/29 01:06:40;;;;;;;5.73;2.60;;;;;;;4.51;74.26;101598.63;6314405;28;20184;-74
2021/04/29 01:09:49;;;;;;;2.40;2.40;;;;;;;4.48;74.25;101594.38;6313581;28;20527;-73
2021/04/29 01:13:02;;;;;;;3.57;2.83;;;;;;;4.77;73.24;101600.31;6314847;28;20186;-73
2021/04/29 01:16:07;;;;;;;2.47;2.37;;;;;;;4.85;72.50;101607.63;6313361;28;20544;-73
2021/04/29 01:19:16;;;;;;;6.83;3.13;;;;;;;5.10;71.73;101606.69;6314712;28;20220;-73
2021/04/29 01:22:20;;;;;;;10.13;3.40;;;;;;;4.97;71.77;101612.56;6314605;28;20185;-73
2021/04/29 01:25:28;;;;;;;4.37;3.10;;;;;;;5.06;71.82;101611.59;6313265;28;20216;-73
2021/04/29 01:28:33;;;;;;;3.03;2.70;;;;;;;4.94;73.13;101612.88;6314384;28;20212;-73
2021/04/29 01:31:39;;;;;;;4.53;2.80;;;;;;;4.93;72.69;101600.38;6314043;28;20192;-74
2021/04/29 01:34:43;;;;;;;3.77;3.10;;;;;;;4.96;73.00;101605.47;6313929;28;20220;-73
2021/04/29 01:37:47;;;;;;;3.13;2.83;;;;;;;4.97;72.43;101607.16;6312959;28;20212;-73
2021/04/29 01:40:51;;;;;;;9.33;3.30;;;;;;;4.92;73.15;101587.88;6314142;28;20190;-73
2021/04/29 01:43:56;;;;;;;4.77;2.97;;;;;;;5.10;72.26;101589.63;6312668;28;20247;-73
2021/04/29 01:47:01;;;;;;;6.30;3.23;;;;;;;4.87;72.10;101559.63;6312491;28;20247;-73
2021/04/29 01:50:06;;;;;;;9.43;3.37;;;;;;;5.17;71.96;101596.06;6312611;28;20238;-73
2021/04/29 01:53:11;;;;;;;14.13;3.23;;;;;;;5.16;72.12;101595.25;6313645;28;20185;-73
2021/04/29 01:56:15;;;;;;;3.70;3.20;;;;;;;4.88;73.02;101591.88;6312773;28;20231;-73
2021/04/29 01:59:20;;;;;;;3.20;2.90;;;;;;;4.74;74.09;101584.41;6313312;28;20257;-73
2021/04/29 02:02:23;;;;;;;4.27;3.57;;;;;;;4.85;73.79;101586.81;6312316;28;20184;-72
2021/04/29 02:05:27;;;;;;;6.67;3.37;;;;;;;4.92;72.69;101587.88;6312227;28;20263;-72
2021/04/29 02:08:30;;;;;;;3.17;3.00;;;;;;;5.07;72.54;101591.66;6312129;28;20559;-73
2021/04/29 02:11:35;;;;;;;2.83;2.80;;;;;;;4.75;73.92;101586.06;6313483;28;20192;-73
2021/04/29 02:14:46;;;;;;;2.60;2.60;;;;;;;4.76;74.84;101582.38;6313065;28;20198;-73
2021/04/29 02:17:56;;;;;;;3.10;2.90;;;;;;;4.40;74.58;101526.78;6313811;28;20190;-72
2021/04/29 02:21:01;;;;;;;3.10;2.90;;;;;;;4.61;75.66;101585.84;6314555;28;20382;-73
2021/04/29 02:24:06;;;;;;;3.33;3.10;;;;;;;4.60;75.58;101570.63;6315591;28;20252;-72
2021/04/29 02:27:11;;;;;;;3.60;3.00;;;;;;;4.80;74.01;101572.91;6316586;28;20414;-73
2021/04/29 02:30:17;;;;;;;8.73;3.07;;;;;;;4.81;74.40;101569.22;6314091;28;20365;-72
2021/04/29 02:33:21;;;;;;;5.40;3.27;;;;;;;4.72;74.76;101569.34;6312261;28;20260;-73
2021/04/29 02:36:24;;;;;;;7.30;3.20;;;;;;;5.02;73.65;101566.94;6312327;28;20186;-72
2021/04/29 02:39:30;;;;;;;4.10;3.30;;;;;;;5.00;74.57;101562.72;6311470;28;20220;-72
2021/04/29 02:42:34;;;;;;;6.80;2.90;;;;;;;5.08;73.79;101566.28;6312521;28;20185;-72
2021/04/29 02:45:38;;;;;;;3.03;2.90;;;;;;;5.03;73.84;101536.16;6311277;28;20493;-72
2021/04/29 02:48:41;;;;;;;4.57;3.20;;;;;;;5.05;75.33;101566.63;6312872;28;20214;-73
2021/04/29 02:51:45;;;;;;;5.90;3.57;;;;;;;4.98;74.89;101560.16;6312723;28;20184;-73
2021/04/29 02:54:48;;;;;;;3.60;3.40;;;;;;;4.97;75.38;101563.88;6311340;28;20249;-73
2021/04/29 02:57:59;;;;;;;5.07;3.90;;;;;;;4.56;77.36;101564.72;6312553;28;20234;-72
2021/04/29 03:01:04;;;;;;;8.10;4.20;;;;;;;4.35;78.12;101564.22;6311222;28;20446;-73
2021/04/29 03:04:10;;;;;;;10.83;4.97;;;;;;;4.17;78.83;101536.41;6312082;28;20251;-73
2021/04/29 03:07:13;;;;;;;10.10;5.20;;;;;;;4.33;78.50;101560.84;6311024;28;20480;-73
2021/04/29 03:10:17;;;;;;;6.30;5.00;;;;;;;4.32;79.06;101561.84;6309962;28;20207;-73
2021/04/29 03:13:20;;;;;;;4.77;4.47;;;;;;;4.47;78.51;101565.66;6311108;28;20500;-73
2021/04/29 03:16:24;;;;;;;7.23;4.07;;;;;;;4.48;78.78;101561.94;6312411;28;20268;-73
2021/04/29 03:19:28;;;;;;;4.50;4.20;;;;;;;4.56;77.38;101556.59;6312252;28;20189;-73
2021/04/29 03:22:32;;;;;;;6.63;4.13;;;;;;;4.37;78.25;101554.09;6311291;28;20237;-73
2021/04/29 03:25:35;;;;;;;4.50;3.67;;;;;;;4.13;79.12;101518.84;6312236;28;20216;-73
2021/04/29 03:28:39;;;;;;;5.80;3.27;;;;;;;4.43;79.20;101556.19;6310779;28;20213;-73
2021/04/29 03:31:43;;;;;;;3.23;3.03;;;;;;;4.86;76.87;101561.47;6310848;28;20194;-73
2021/04/29 03:34:47;;;;;;;3.30;3.00;;;;;;;4.72;76.67;101540.47;6312165;28;20252;-74
2021/04/29 03:37:50;;;;;;;3.10;3.00;;;;;;;4.68;77.59;101552.59;6311852;28;20261;-73
2021/04/29 03:40:53;;;;;;;9.27;2.93;;;;;;;4.72;77.81;101564.78;6311026;28;20193;-73
2021/04/29 03:43:56;;;;;;;4.33;3.00;;;;;;;4.77;77.60;101551.66;6312049;28;20247;-73
2021/04/29 03:47:00;;;;;;;4.20;3.10;;;;;;;4.75;78.20;101550.94;6313784;28;20256;-73
2021/04/29 03:50:05;;;;;;;8.97;3.70;;;;;;;4.88;77.79;101558.59;6315316;28;20216;-73
2021/04/29 03:53:10;;;;;;;6.00;3.47;;;;;;;5.02;77.10;101572.38;6316402;28;20192;-73
2021/04/29 03:56:13;;;;;;;13.40;3.40;;;;;;;5.33;75.64;101553.69;6315199;28;20200;-73
2021/04/29 03:59:16;;;;;;;6.87;3.20;;;;;;;5.37;75.22;101563.16;6316272;28;20331;-73
2021/04/29 04:02:20;;;;;;;3.53;3.23;;;;;;;5.39;74.76;101560.31;6316112;28;20186;-73
2021/04/29 04:05:23;;;;;;;6.00;3.50;;;;;;;5.32;76.59;101562.81;6315187;28;20259;-73
2021/04/29 04:08:27;;;;;;;6.43;3.80;;;;;;;5.31;77.01;101561.13;6316130;28;20296;-73
2021/04/29 04:11:30;;;;;;;4.00;3.20;;;;;;;5.41;76.52;101566.38;6315798;28;20185;-73
2021/04/29 04:14:33;;;;;;;8.20;3.40;;;;;;;5.39;77.26;101563.81;6315880;28;20187;-73
2021/04/29 04:17:37;;;;;;;4.03;3.30;;;;;;;5.33;77.68;101569.91;6314860;28;20376;-72
2021/04/29 04:20:55;;;;;;;4.47;3.37;;;;;;;5.52;76.25;101568.78;6315783;28;20185;-73
2021/04/29 04:23:58;;;;;;;3.67;3.37;;;;;;;5.23;77.54;101568.38;6315697;28;20224;-73
2021/04/29 04:27:01;;;;;;;3.53;3.33;;;;;;;5.00;78.22;101568.97;6315714;28;20222;-73
2021/04/29 04:30:11;;;;;;;3.20;3.10;;;;;;;4.97;79.42;101568.44;6315317;28;20209;-72
2021/04/29 04:33:16;;;;;;;4.87;3.27;;;;;;;4.84;79.95;101568.91;6315777;28;20204;-73
2021/04/29 04:36:19;;;;;;;4.80;3.33;;;;;;;4.79;80.43;101563.13;6315395;28;20223;-73
2021/04/29 04:39:22;;;;;;;4.07;3.23;;;;;;;4.74;81.08;101579.00;6314201;28;20435;-73
2021/04/29 04:42:25;;;;;;;4.50;3.20;;;;;;;4.75;81.89;101575.25;6315226;28;20224;-73
2021/04/29 04:45:28;;;;;;;3.73;3.43;;;;;;;4.80;81.47;101572.91;6314054;28;20216;-73
2021/04/29 04:48:32;;;;;;;7.40;3.43;;;;;;;4.86;81.59;101566.03;6315050;28;20248;-74
2021/04/29 04:51:36;;;;;;;3.40;3.20;;;;;;;4.89;82.32;101569.25;6314595;28;20273;-73
2021/04/29 04:54:39;;;;;;;3.57;3.37;;;;;;;4.98;81.50;101570.97;6313385;28;20496;-74
2021/04/29 04:57:42;;;;;;;3.93;3.60;;;;;;;5.01;81.32;101578.75;6314494;28;20254;-72
2021/04/29 05:00:48;;;;;;;4.00;3.60;;;;;;;5.17;81.12;101558.19;6315069;28;20222;-73
2021/04/29 05:03:52;;;;;;;6.17;3.50;;;;;;;5.33;81.24;101569.91;6315045;28;20292;-72
2021/04/29 05:06:55;;;;;;;9.15;3.85;;;;;;;5.31;81.53;101571.09;6314603;28;20254;-72
2021/04/29 05:09:59;;;;;;;5.80;3.40;;;;;;;5.65;80.97;101574.53;6314215;28;20610;-72
2021/04/29 05:13:02;;;;;;;6.37;3.30;;;;;;;5.85;80.07;101575.97;6314790;28;20223;-72
2021/04/29 05:16:06;;;;;;;4.97;3.57;;;;;;;5.86;80.04;101577.63;6314593;28;20225;-72
2021/04/29 05:19:10;;;;;;;3.50;3.30;;;;;;;5.67;80.42;101564.41;6313591;28;20384;-73
2021/04/29 05:22:15;;;;;;;3.80;3.60;;;;;;;5.71;81.32;101573.88;6314293;28;20187;-72
2021/04/29 05:25:20;;;;;;;5.37;3.70;;;;;;;5.73;81.03;101577.25;6313004;28;20477;-71
2021/04/29 05:28:23;;;;;;;7.50;4.10;;;;;;;5.68;81.00;101568.78;6313873;28;20213;-72
2021/04/29 05:31:27;;;;;;;4.97;3.73;;;;;;;5.57;80.95;101552.88;6312824;28;20396;-72
2021/04/29 05:34:32;;;;;;;4.20;3.53;;;;;;;5.68;81.24;101579.63;6313243;28;20190;-72
2021/04/29 05:37:36;;;;;;;5.93;3.73;;;;;;;5.60;81.33;101571.47;6313648;28;20233;-72
2021/04/29 05:40:40;;;;;;;4.47;4.10;;;;;;;5.65;80.90;101574.53;6313825;28;20204;-72
2021/04/29 05:43:43;;;;;;;7.43;4.10;;;;;;;5.77;80.54;101577.78;6312491;28;20225;-72
2021/04/29 05:46:46;;;;;;;4.23;4.03;;;;;;;5.78;80.24;101582.19;6313374;28;20193;-72
2021/04/29 05:49:50;;;;;;;3.87;3.57;;;;;;;5.81;79.52;101569.13;6313576;28;20214;-72
2021/04/29 05:52:53;;;;;;;4.43;4.03;;;;;;;5.88;79.19;101591.84;6312530;28;20186;-72
2021/04/29 05:55:59;;;;;;;4.90;4.37;;;;;;;5.84;79.01;101574.22;6312178;28;20471;-71
2021/04/29 05:59:04;;;;;;;7.77;4.00;;;;;;;5.89;78.23;101577.31;6313051;28;20190;-72
2021/04/29 06:02:07;;;;;;;4.13;3.70;;;;;;;5.98;77.02;101570.03;6313292;28;20187;-71
2021/04/29 06:05:19;;;;;;;6.33;3.77;;;;;;;5.89;76.23;101555.63;6313285;28;20295;-71
2021/04/29 06:08:23;;;;;;;4.20;3.93;;;;;;;6.14;75.49;101579.00;6311731;28;20225;-71
2021/04/29 06:11:26;;;;;;;4.30;4.00;;;;;;;6.16;74.15;101563.41;6312534;28;20193;-72
2021/04/29 06:14:29;;;;;;;7.90;3.80;;;;;;;6.51;72.38;101577.59;6311664;28;20186;-73
2021/04/29 06:17:32;;;;;;;14.13;4.00;;;;;;;6.65;70.08;101585.03;6312441;28;20187;-73
2021/04/29 06:20:36;;;;;;;4.57;3.50;;;;;;;6.76;68.81;101582.78;6312575;28;20190;-73
2021/04/29 06:23:39;;;;;;;7.53;3.13;;;;;;;6.57;67.98;101585.03;6311855;28;20192;-76
2021/04/29 06:26:43;;;;;;;3.77;3.40;;;;;;;6.57;67.86;101587.75;6311481;28;20511;-73
2021/04/29 06:29:46;;;;;;;3.10;2.90;;;;;;;6.81;67.39;101582.25;6312252;28;20308;-73
2021/04/29 06:32:49;;;;;;;3.13;2.90;;;;;;;6.83;67.52;101591.06;6311691;28;20353;-73
2021/04/29 06:35:53;;;;;;;4.97;2.83;;;;;;;6.81;67.40;101590.38;6312688;28;20259;-73
2021/04/29 06:38:56;;;;;;;10.05;2.90;;;;;;;6.69;65.68;101587.22;6312690;28;20190;-72
2021/04/29 06:41:59;;;;;;;3.03;2.50;;;;;;;6.70;64.86;101588.06;6312326;28;20240;-72
2021/04/29 06:45:04;;;;;;;4.67;2.83;;;;;;;6.67;64.52;101588.41;6311279;28;20240;-72
2021/04/29 06:48:11;;;;;;;2.77;2.67;;;;;;;6.70;64.71;101582.63;6312236;28;20187;-73
2021/04/29 06:51:20;;;;;;;13.70;3.43;;;;;;;6.76;62.92;101595.47;6310869;28;20237;-73
2021/04/29 06:54:38;;;;;;;7.70;2.60;;;;;;;6.81;62.51;101590.38;6311972;28;20250;-72
2021/04/29 06:57:41;;;;;;;2.93;2.60;;;;;;;6.88;61.60;101586.78;6312323;28;20193;-73
2021/04/29 07:00:44;;;;;;;2.67;2.47;;;;;;;6.92;62.18;101592.72;6312103;28;20222;-72
2021/04/29 07:03:48;;;;;;;2.43;2.33;;;;;;;6.92;61.60;101582.72;6311056;28;20447;-73
2021/04/29 07:06:51;;;;;;;3.13;2.63;;;;;;;6.81;62.33;101587.66;6311107;28;20444;-73
2021/04/29 07:09:55;;;;;;;3.17;2.50;;;;;;;6.96;63.08;101577.78;6311739;28;20219;-74
2021/04/29 07:12:57;;;;;;;4.53;2.70;;;;;;;7.02;62.58;101577.09;6312089;28;20184;-72
2021/04/29 07:16:00;;;;;;;7.87;2.60;;;;;;;7.15;62.94;101577.38;6311595;28;20194;-73
2021/04/29 07:19:04;;;;;;;2.73;2.50;;;;;;;7.40;61.84;101587.06;6310956;28;20191;-73
2021/04/29 07:22:09;;;;;;;4.63;2.53;;;;;;;7.51;61.50;101583.97;6316223;28;20184;-73
2021/04/29 07:25:12;;;;;;;9.87;2.50;;;;;;;7.69;59.50;101585.53;6317278;28;20191;-73
2021/04/29 07:28:15;;;;;;;2.00;1.90;;;;;;;7.80;58.05;101582.41;6315868;28;20228;-73
2021/04/29 07:31:18;;;;;;;2.40;2.30;;;;;;;7.68;58.27;101578.44;6315876;28;20218;-73
2021/04/29 07:34:22;;;;;;;4.73;1.97;;;;;;;7.91;58.22;101584.72;6315874;28;20474;-73
2021/04/29 07:37:26;;;;;;;8.80;2.27;;;;;;;7.88;58.40;101595.94;6315870;28;20502;-73
2021/04/29 07:40:30;;;;;;;5.20;2.30;;;;;;;8.04;58.55;101598.50;6315900;28;20187;-73
2021/04/29 07:43:33;;;;;;;2.83;2.53;;;;;;;7.79;58.87;101602.44;6315873;28;20356;-73
2021/04/29 07:46:36;;;;;;;2.88;2.13;;;;;;;7.67;59.54;101582.16;6315772;28;20191;-73
2021/04/29 07:49:39;;;;;;;2.00;2.00;;;;;;;7.66;59.15;101591.31;6316822;28;20286;-73
2021/04/29 07:52:44;;;;;;;2.10;2.00;;;;;;;7.71;59.02;101592.47;6316890;28;20190;-73
2021/04/29 07:55:47;;;;;;;2.35;2.10;;;;;;;7.67;58.54;101598.47;6316366;28;20184;-73
2021/04/29 07:58:50;;;;;;;6.03;2.30;;;;;;;7.85;58.47;101601.72;6316696;28;20255;-74
2021/04/29 08:01:53;;;;;;;1.70;1.70;;;;;;;7.79;57.78;101591.56;6316710;28;20199;-73
2021/04/29 08:04:57;;;;;;;2.73;2.30;;;;;;;7.70;57.74;101609.81;6315572;28;20254;-74
2021/04/29 08:08:01;;;;;;;17.58;2.58;;;;;;;7.90;56.23;101593.88;6316456;28;20190;-73
2021/04/29 08:11:05;;;;;;;5.53;1.80;;;;;;;7.94;53.79;101606.91;6316429;28;20207;-72
2021/04/29 08:14:09;;;;;;;1.60;1.60;;;;;;;8.09;53.32;101604.25;6315049;28;20463;-72
2021/04/29 08:17:13;;;;;;;5.50;2.10;;;;;;;8.11;53.31;101602.22;6314925;28;20463;-72
2021/04/29 08:20:16;;;;;;;3.33;1.50;;;;;;;7.88;48.00;101595.94;6314180;28;20383;-72
2021/04/29 08:23:20;;;;;;;6.53;1.45;;;;;;;8.00;45.21;101610.78;6316094;28;20232;-73
2021/04/29 08:26:24;;;;;;;1.27;1.17;;;;;;;7.97;46.21;101605.72;6315452;28;20252;-72
2021/04/29 08:29:28;;;;;;;1.00;1.00;;;;;;;7.88;46.51;101613.09;6316065;28;20216;-74
2021/04/29 08:32:31;;;;;;;1.13;1.13;;;;;;;7.76;46.95;101614.53;6314254;28;20471;-73
2021/04/29 08:35:34;;;;;;;1.00;1.00;;;;;;;7.52;46.40;101611.97;6315469;28;20187;-74
2021/04/29 08:38:38;;;;;;;1.50;1.20;;;;;;;7.35;46.20;101611.19;6314903;28;20194;-74
2021/04/29 08:41:41;;;;;;;2.80;1.20;;;;;;;7.34;46.29;101614.94;6314092;28;20420;-73
2021/04/29 08:44:44;;;;;;;2.33;1.13;;;;;;;7.47;45.23;101614.38;6313962;28;20183;-73
2021/04/29 08:47:56;;;;;;;2.03;1.17;;;;;;;7.60;44.69;101613.78;6314587;28;20218;-73
2021/04/29 08:51:01;;;;;;;1.00;1.00;;;;;;;7.67;44.21;101580.31;6314114;28;20392;-73
2021/04/29 08:54:05;;;;;;;4.20;1.00;;;;;;;7.86;44.29;101608.84;6313804;28;20439;-73
2021/04/29 08:57:09;;;;;;;2.17;1.10;;;;;;;7.94;44.59;101603.34;6313671;28;20259;-72
2021/04/29 09:00:14;;;;;;;1.20;1.20;;;;;;;7.88;43.89;101601.38;6314810;28;20195;-73
2021/04/29 09:03:29;;;;;;;1.55;1.10;;;;;;;7.94;44.11;101617.78;6314437;28;20235;-74
2021/04/29 09:06:33;;;;;;;3.50;1.27;;;;;;;8.14;43.96;101623.56;6316508;28;20187;-73
2021/04/29 09:09:41;;;;;;;10.47;1.50;;;;;;;8.45;43.25;101616.19;6315487;28;20222;-73
2021/04/29 09:12:44;;;;;;;2.53;1.40;;;;;;;8.36;42.51;101611.88;6315028;28;20222;-74
2021/04/29 09:15:48;;;;;;;1.10;1.10;;;;;;;8.23;43.42;101614.34;6314280;28;20168;-73
2021/04/29 09:18:52;;;;;;;9.30;1.50;;;;;;;8.31;42.95;101608.88;6314806;28;20045;-74
2021/04/29 09:21:56;;;;;;;;;;;;;;;8.35;42.96;101610.16;6315327;28;19916;-72
2021/04/29 09:25:10;;;;;;;;;;;;;;;8.36;44.84;101617.31;6315087;28;19954;-72
2021/04/29 09:28:13;;;;;;;;;;;;;;;8.39;46.08;101616.94;6315083;28;19980;-72
2021/04/29 09:31:18;;;;;;;;;;;;;;;8.42;46.41;101613.88;6314871;28;19916;-72
2021/04/29 09:34:21;;;;;;;2.05;1.00;;;;;;;8.25;46.79;101615.00;6314250;28;19922;-72
2021/04/29 09:37:30;;;;;;;1.47;1.07;;;;;;;7.95;46.21;101607.78;6314028;28;20190;-72
2021/04/29 09:40:40;;;;;;;1.10;1.10;;;;;;;8.17;46.25;101609.63;6314265;28;20251;-73
2021/04/29 09:43:50;;;;;;;;;;;;;;;8.15;46.47;101546.44;6313455;28;20184;-75
2021/04/29 09:46:55;;;;;;;;;;;;;;;8.64;44.71;101598.50;6314573;28;19999;-73
2021/04/29 09:49:58;;;;;;;;;;;;;;;8.63;44.73;101592.22;6314067;28;19930;-73
2021/04/29 09:53:02;;;;;;;;;;;;;;;8.74;41.72;101594.47;6314432;28;19955;-73
2021/04/29 09:56:14;;;;;;;;;;;;;;;9.00;41.20;101599.47;6314517;28;19920;-73
2021/04/29 09:59:17;;;;;;;;;;;;;;;9.14;42.18;101595.06;6313385;28;19916;-73
2021/04/29 10:02:20;;;;;;;;;;;;;;;8.93;42.39;101597.69;6313940;28;19923;-73
2021/04/29 10:05:23;;;;;;;;;;;;;;;8.88;43.38;101603.69;6313727;28;19917;-74
2021/04/29 10:08:27;;;;;;;;;;;;;;;8.52;41.98;101587.25;6312552;28;19951;-74
2021/04/29 10:11:30;;;;;;;;;;;;;;;8.72;42.61;101588.41;6314039;28;19995;-73
2021/04/29 10:14:34;;;;;;;;;;;;;;;8.92;42.84;101591.38;6312678;28;20199;-75
2021/04/29 10:17:38;;;;;;;;;;;;;;;8.72;41.34;101591.13;6313533;28;19958;-72
2021/04/29 10:20:42;;;;;;;;;;;;;;;8.85;41.00;101595.06;6313410;28;19975;-73
2021/04/29 10:23:45;;;;;;;;;;;;;;;9.04;41.56;101592.59;6312083;28;20142;-74
2021/04/29 10:26:59;;;;;;;;;;;;;;;8.99;40.70;101583.34;6312887;28;19989;-73
2021/04/29 10:30:03;;;;;;;;;;;;;;;9.17;39.48;101583.75;6312722;28;19917;-73
2021/04/29 10:33:13;;;;;;;;;;;;;;;9.19;39.95;101585.25;6312521;28;19924;-74
2021/04/29 10:36:16;;;;;;;;;;;;;;;9.22;39.49;101589.47;6312467;28;19979;-73
2021/04/29 10:39:20;;;;;;;;;;;;;;;9.16;39.98;101590.25;6311874;28;20257;-74
2021/04/29 10:42:24;;;;;;;;;;;;;;;9.30;40.25;101589.38;6312588;28;19916;-74
2021/04/29 10:45:28;;;;;;;3.35;1.13;;;;;;;8.89;39.31;101585.47;6312544;28;20570;-74
2021/04/29 10:48:36;;;;;;;1.40;1.40;;;;;;;9.02;40.56;101591.94;6311261;28;20191;-73
2021/04/29 10:51:42;;;;;;;1.13;1.13;;;;;;;8.98;40.08;101596.09;6312214;28;20245;-73
2021/04/29 10:54:49;;;;;;;1.20;1.20;;;;;;;8.94;39.79;101578.44;6311080;28;20475;-74
2021/04/29 10:57:53;;;;;;;0.93;0.93;;;;;;;8.97;40.49;101582.66;6311012;28;20184;-74
2021/04/29 11:01:01;;;;;;;1.08;1.08;;;;;;;9.19;40.15;101587.16;6311987;28;20194;-74
2021/04/29 11:04:14;;;;;;;1.35;1.27;;;;;;;8.97;39.42;101571.75;6311953;28;20239;-73
2021/04/29 11:07:19;;;;;;;2.58;1.48;;;;;;;9.06;40.40;101581.53;6312374;28;20184;-74
2021/04/29 11:10:25;;;;;;;1.10;1.10;;;;;;;9.19;40.45;101579.81;6312049;28;20218;-72
2021/04/29 11:13:30;;;;;;;1.65;1.10;;;;;;;9.15;39.65;101580.38;6312253;28;20229;-73
2021/04/29 11:16:48;;;;;;;1.20;1.20;;;;;;;9.38;40.52;101575.66;6312481;28;20187;-73
2021/04/29 11:19:58;;;;;;;1.10;1.10;;;;;;;9.59;40.28;101572.97;6310958;28;20480;-73
2021/04/29 11:23:01;;;;;;;3.45;1.15;;;;;;;9.58;41.07;101576.72;6311928;28;20260;-73
2021/04/29 11:26:04;;;;;;;;;;;;;;;9.67;40.42;101575.56;6327790;28;20063;-73
2021/04/29 11:29:08;;;;;;;;;;;;;;;9.53;40.77;101568.28;6311314;28;19962;-72
2021/04/29 11:32:11;;;;;;;;;;;;;;;9.69;40.00;101573.50;6312687;28;19954;-73
2021/04/29 11:35:19;;;;;;;;;;;;;;;9.61;40.85;101565.44;6311341;28;19916;-72
2021/04/29 11:38:22;;;;;;;1.00;1.00;;;;;;;9.57;40.32;101564.16;6311659;28;19921;-72
2021/04/29 11:41:28;;;;;;;1.55;1.45;;;;;;;9.62;40.49;101567.13;6310393;28;20214;-73
2021/04/29 11:44:32;;;;;;;;;;;;;;;9.54;40.58;101563.69;6311437;28;20184;-73
2021/04/29 11:47:36;;;;;;;;;;;;;;;9.40;40.20;101557.22;6312032;28;19928;-73
2021/04/29 11:50:42;;;;;;;1.35;1.25;;;;;;;9.72;39.99;101573.13;6310530;28;19920;-72
2021/04/29 11:53:45;;;;;;;1.58;1.30;;;;;;;9.87;39.76;101559.41;6309486;28;20470;-72
2021/04/29 11:56:50;;;;;;;3.67;1.52;;;;;;;9.88;39.59;101550.22;6311095;28;20183;-72
2021/04/29 11:59:55;;;;;;;1.10;1.10;;;;;;;9.84;40.01;101555.19;6310987;28;20191;-72
2021/04/29 12:02:59;;;;;;;1.20;1.10;;;;;;;9.90;40.39;101564.50;6311029;28;20191;-73
2021/04/29 12:06:04;;;;;;;1.85;1.30;;;;;;;9.79;40.05;101563.13;6312005;28;20234;-71
2021/04/29 12:09:10;;;;;;;3.25;1.27;;;;;;;10.09;39.57;101559.22;6315099;28;20190;-73
2021/04/29 12:12:30;;;;;;;1.10;1.10;;;;;;;9.85;40.04;101565.06;6315066;28;20456;-73
2021/04/29 12:15:34;;;;;;;1.13;1.13;;;;;;;10.08;39.45;101554.81;6314522;28;20454;-73
2021/04/29 12:18:41;;;;;;;2.40;1.15;;;;;;;9.97;39.09;101559.94;6313869;28;20215;-73
2021/04/29 12:21:44;;;;;;;1.05;1.00;;;;;;;9.56;40.42;101557.00;6315726;28;20226;-73
2021/04/29 12:24:48;;;;;;;1.10;1.10;;;;;;;9.36;40.92;101550.50;6314317;28;20534;-74
2021/04/29 12:27:51;;;;;;;1.08;1.08;;;;;;;9.34;40.99;101552.56;6315435;28;20215;-73
2021/04/29 12:30:55;;;;;;;1.10;1.10;;;;;;;9.46;40.92;101540.13;6314513;28;20211;-74
2021/04/29 12:34:03;;;;;;;1.08;1.08;;;;;;;9.39;40.16;101544.66;6315387;28;20190;-73
2021/04/29 12:37:07;;;;;;;1.33;1.23;;;;;;;9.35;40.46;101535.19;6314284;28;20513;-73
2021/04/29 12:40:23;;;;;;;1.20;1.20;;;;;;;9.26;40.48;101523.56;6315234;28;20229;-74
2021/04/29 12:43:33;;;;;;;2.05;1.30;;;;;;;9.54;40.03;101531.84;6314191;28;20475;-73
2021/04/29 12:46:38;;;;;;;2.35;1.38;;;;;;;9.83;39.66;101520.81;6314089;28;20455;-74
2021/04/29 12:49:42;;;;;;;1.75;1.35;;;;;;;9.60;40.19;101512.00;6315280;28;20229;-74
2021/04/29 12:52:47;;;;;;;1.90;1.30;;;;;;;9.68;39.33;101528.19;6315268;28;20305;-73
2021/04/29 12:55:50;;;;;;;1.48;1.20;;;;;;;9.85;39.72;101518.75;6313852;28;20422;-73
2021/04/29 12:58:53;;;;;;;3.83;1.67;;;;;;;9.92;39.94;101519.63;6315068;28;20230;-73
2021/04/29 13:02:05;;;;;;;3.40;1.55;;;;;;;10.01;40.11;101513.00;6314356;28;20395;-73
2021/04/29 13:05:12;;;;;;;4.07;1.30;;;;;;;9.78;39.44;101509.66;6313675;28;20423;-72
2021/04/29 13:08:15;;;;;;;5.18;1.52;;;;;;;9.86;40.10;101519.59;6314642;28;20191;-73
2021/04/29 13:11:39;;;;;;;1.85;1.27;;;;;;;9.98;39.77;101513.41;6314493;28;20207;-73
2021/04/29 13:14:44;;;;;;;2.47;1.20;;;;;;;10.27;39.22;101506.13;6313361;28;20494;-73
2021/04/29 13:17:50;;;;;;;1.25;1.25;;;;;;;10.08;38.99;101503.00;6313891;28;20183;-73
2021/04/29 13:20:55;;;;;;;;;;;;;;;9.94;40.48;101501.19;6314590;28;20094;-74
2021/04/29 13:23:59;;;;;;;1.67;1.25;;;;;;;9.93;40.10;101496.81;6314380;28;19980;-73
2021/04/29 13:27:03;;;;;;;1.70;1.40;;;;;;;10.05;40.33;101503.41;6314517;28;20194;-72
2021/04/29 13:30:08;;;;;;;;;;;;;;;10.06;39.78;101496.91;6314436;28;20270;-70
2021/04/29 13:33:14;;;;;;;;;;;;;;;10.01;39.68;101488.47;6314746;28;19979;-73
2021/04/29 13:36:20;;;;;;;;;;;;;;;10.06;40.10;101494.19;6313325;28;20241;-73
2021/04/29 13:39:23;;;;;;;4.40;1.73;;;;;;;10.27;39.12;101489.75;6314317;28;19999;-73
2021/04/29 13:42:27;;;;;;;1.50;1.50;;;;;;;10.19;40.09;101481.72;6313922;28;20187;-73
2021/04/29 13:45:30;;;;;;;4.95;1.33;;;;;;;10.14;39.59;101479.59;6312577;28;20229;-73
2021/04/29 13:48:34;;;;;;;1.40;1.20;;;;;;;10.11;39.04;101484.56;6312677;28;20451;-73
2021/04/29 13:51:37;;;;;;;3.42;1.23;;;;;;;9.86;39.68;101460.44;6312406;28;20403;-73
2021/04/29 13:54:40;;;;;;;1.88;1.60;;;;;;;10.13;39.90;101472.44;6313364;28;20188;-73
2021/04/29 13:57:44;;;;;;;6.15;1.63;;;;;;;10.33;39.07;101461.66;6313314;28;20250;-73
2021/04/29 14:00:47;;;;;;;2.67;1.70;;;;;;;10.49;39.02;101472.25;6312943;28;20218;-72
2021/04/29 14:03:51;;;;;;;7.88;1.35;;;;;;;10.35;39.03;101473.25;6312920;28;20256;-74
2021/04/29 14:06:54;;;;;;;5.25;1.48;;;;;;;10.37;39.70;101479.31;6311287;28;20366;-73
2021/04/29 14:09:57;;;;;;;;;;;;;;;10.35;39.87;101481.41;6311322;28;20472;-74
2021/04/29 14:13:01;;;;;;;;;;;;;;;10.32;39.57;101476.34;6312258;28;20025;-74
2021/04/29 14:16:06;;;;;;;;;;;;;;;10.12;39.35;101486.25;6313013;28;19916;-73
2021/04/29 14:19:10;;;;;;;;;;;;;;;10.17;39.07;101478.34;6312751;28;20005;-73
2021/04/29 14:22:13;;;;;;;;;;;;;;;10.19;39.31;101476.25;6311366;28;20257;-73
2021/04/29 14:25:15;;;;;;;;;;;;;;;10.22;39.27;101486.78;6312302;28;19917;-73
2021/04/29 14:28:18;;;;;;;;;;;;;;;10.33;39.36;101478.03;6311998;28;19917;-74
2021/04/29 14:31:21;;;;;;;;;;;;;;;10.15;38.52;101474.97;6311570;28;19921;-73
2021/04/29 14:34:25;;;;;;;;;;;;;;;9.94;39.07;101467.63;6312311;28;19985;-73
2021/04/29 14:37:28;;;;;;;;;;;;;;;9.89;38.38;101465.50;6311053;28;20219;-73
2021/04/29 14:40:31;;;;;;;;;;;;;;;10.00;38.70;101467.72;6311123;28;19975;-72
2021/04/29 14:43:34;;;;;;;;;;;;;;;10.04;39.23;101463.53;6311972;28;19916;-73